Nazca — ZDGK2 — position and weather

sailwx.info

Track history (hours):
 
Tides and Currents Weather Stations Pressure Air Temp Water Temp Dewpoint Dewpoint Depression Visibility Wind Speed Wind Dir Waves Ship Positions

Nazca

Last reported at 2015-Jul-30 08:11 UTC. Time now 2015-Jul-31 15:26 UTC.
Position N 37°48' E 023°46'.

Length 21 m.

Type: Sailing vessel. MMSI: 236255000.

Date/timePositionNaut miles runAvg speedWind from/ knotsBaromVisibWave heightAir tempDewpointWater temp
2015-Jul-30 08:11N 37°48' E 023°46'0 0.0
2015-Jul-30 07:29N 37°48' E 023°46'0 0.0
2015-Jul-29 16:09N 37°48' E 023°46'0 0.0
2015-Jul-29 13:33N 37°48' E 023°46'0 0.0
2015-Jul-29 12:33N 37°48' E 023°46'0 0.0
2015-Jul-29 11:21N 37°48' E 023°46'0 0.0
2015-Jul-29 09:27N 37°48' E 023°46'0 0.0
2015-Jul-29 08:27N 37°48' E 023°46'0 0.0
2015-Jul-29 06:33N 37°48' E 023°46'0 0.0
2015-Jul-28 16:33N 37°48' E 023°46'1 1.0
2015-Jul-28 15:34N 37°48' E 023°45'9 8.9
2015-Jul-28 14:33N 37°55' E 023°38'4 3.4
2015-Jul-28 13:29N 37°58' E 023°34'0 0.0
2015-Jul-28 12:32N 37°58' E 023°34'0 0.0
2015-Jul-28 10:22N 37°58' E 023°34'7 8.1
2015-Jul-28 09:33N 37°52' E 023°39'7 5.4
2015-Jul-28 08:16N 37°48' E 023°46'0 0.0
2015-Jul-28 06:30N 37°48' E 023°46'  
Track history (hours):
 
Tides and Currents Weather Stations Pressure Air Temp Water Temp Dewpoint Dewpoint Depression Visibility Wind Speed Wind Dir Waves Ship Positions

Nazca

Last reported at 2015-Jul-30 08:11 UTC. Time now 2015-Jul-31 15:26 UTC.
Position N 37°48' E 023°46'.

Length 21 m.

Type: Sailing vessel. MMSI: 236255000.

Date/timePositionNaut miles runAvg speedWind from/ knotsBaromVisibWave heightAir tempDewpointWater temp
2015-Jul-30 08:11N 37°48' E 023°46'0 0.0
2015-Jul-30 07:29N 37°48' E 023°46'0 0.0
2015-Jul-29 16:09N 37°48' E 023°46'0 0.0
2015-Jul-29 13:33N 37°48' E 023°46'0 0.0
2015-Jul-29 12:33N 37°48' E 023°46'0 0.0
2015-Jul-29 11:21N 37°48' E 023°46'0 0.0
2015-Jul-29 09:27N 37°48' E 023°46'0 0.0
2015-Jul-29 08:27N 37°48' E 023°46'0 0.0
2015-Jul-29 06:33N 37°48' E 023°46'0 0.0
2015-Jul-28 16:33N 37°48' E 023°46'1 1.0
2015-Jul-28 15:34N 37°48' E 023°45'9 8.9
2015-Jul-28 14:33N 37°55' E 023°38'4 3.4
2015-Jul-28 13:29N 37°58' E 023°34'0 0.0
2015-Jul-28 12:32N 37°58' E 023°34'0 0.0
2015-Jul-28 10:22N 37°58' E 023°34'7 8.1
2015-Jul-28 09:33N 37°52' E 023°39'7 5.4
2015-Jul-28 08:16N 37°48' E 023°46'0 0.0
2015-Jul-28 06:30N 37°48' E 023°46'  

Dump ship's entire track history